createdAt,value
2019-04-22T00:02:20.903Z,4.00
2019-04-22T00:05:01.186Z,3.50
2019-04-22T00:07:43.279Z,3.10
2019-04-22T00:10:19.372Z,2.97
2019-04-22T00:12:47.290Z,4.10
2019-04-22T00:15:10.168Z,3.43
2019-04-22T00:17:55.300Z,3.80
2019-04-22T00:20:14.320Z,3.60
2019-04-22T00:22:44.679Z,2.97
2019-04-22T00:27:57.538Z,3.70
2019-04-22T00:30:20.920Z,4.10
2019-04-22T00:33:03.277Z,3.57
2019-04-22T00:35:36.679Z,3.90
2019-04-22T00:38:14.359Z,3.30
2019-04-22T00:40:41.161Z,4.20
2019-04-22T00:43:04.946Z,3.63
2019-04-22T00:45:38.929Z,3.87
2019-04-22T00:48:16.440Z,3.70
2019-04-22T00:53:20.131Z,4.03
2019-04-22T00:55:46.354Z,3.67
2019-04-22T00:58:22.761Z,4.10
2019-04-22T01:00:49.320Z,3.57
2019-04-22T01:03:19.957Z,3.90
2019-04-22T01:05:46.623Z,3.67
2019-04-22T01:08:21.093Z,3.87
2019-04-22T01:10:50.038Z,3.90
2019-04-22T01:13:21.721Z,3.70
2019-04-22T01:15:47.613Z,4.60
2019-04-22T01:18:21.028Z,3.90
2019-04-22T01:21:11.234Z,3.77
2019-04-22T01:23:23.713Z,3.97
2019-04-22T01:25:55.242Z,3.70
2019-04-22T01:28:18.051Z,4.03
2019-04-22T01:30:49.233Z,3.30
2019-04-22T01:33:16.063Z,4.63
2019-04-22T01:36:04.324Z,3.63
2019-04-22T01:38:31.605Z,3.83
2019-04-22T01:41:07.145Z,3.50
2019-04-22T01:43:50.329Z,4.60
2019-04-22T01:46:07.902Z,3.70
2019-04-22T01:48:39.535Z,4.27
2019-04-22T01:51:01.336Z,3.60
2019-04-22T01:53:44.951Z,4.40
2019-04-22T01:56:08.350Z,3.90
2019-04-22T01:58:36.227Z,4.13
2019-04-22T02:01:09.744Z,4.00
2019-04-22T02:03:40.072Z,3.57
2019-04-22T02:06:17.227Z,3.60
2019-04-22T02:08:44.891Z,4.23
2019-04-22T02:11:24.111Z,3.43
2019-04-22T02:13:44.805Z,4.27
2019-04-22T02:16:15.192Z,4.37
2019-04-22T02:18:44.253Z,4.33
2019-04-22T02:21:07.300Z,4.10
2019-04-22T02:23:47.161Z,4.70
2019-04-22T02:26:23.790Z,3.90
2019-04-22T02:28:58.098Z,3.53
2019-04-22T02:34:11.488Z,3.50
2019-04-22T02:36:22.670Z,4.53
2019-04-22T02:38:58.788Z,3.40
2019-04-22T02:41:26.610Z,3.80
2019-04-22T02:46:34.870Z,3.87
2019-04-22T03:06:33.515Z,3.53
2019-04-22T03:08:59.642Z,4.03
2019-04-22T03:14:46.144Z,3.80
2019-04-22T03:21:27.975Z,4.10
2019-04-22T03:26:32.044Z,4.50
2019-04-22T03:28:57.178Z,4.40
2019-04-22T03:34:54.755Z,3.50
2019-04-22T03:39:28.044Z,3.70
2019-04-22T03:41:57.315Z,4.00
2019-04-22T03:44:28.182Z,4.30
2019-04-22T03:46:53.199Z,4.03
2019-04-22T03:54:29.642Z,4.80
2019-04-22T03:57:17.708Z,4.30
2019-04-22T03:59:33.783Z,4.60
2019-04-22T04:04:30.425Z,5.03
2019-04-22T04:06:59.663Z,4.97
2019-04-22T04:09:27.036Z,4.33
2019-04-22T04:14:32.205Z,4.43
2019-04-22T04:19:24.660Z,4.83
2019-04-22T04:24:34.387Z,3.93
2019-04-22T04:26:54.913Z,4.30
2019-04-22T04:29:36.178Z,5.27
2019-04-22T04:31:58.824Z,4.13
2019-04-22T04:34:28.314Z,4.60
2019-04-22T04:37:18.674Z,4.37
2019-04-22T04:39:26.807Z,5.03
2019-04-22T04:42:07.376Z,4.60
2019-04-22T04:44:34.325Z,4.90
2019-04-22T04:49:24.276Z,4.77
2019-04-22T04:51:56.137Z,4.07
2019-04-22T04:57:11.280Z,4.50
2019-04-22T05:01:55.586Z,4.67
2019-04-22T05:04:37.161Z,3.67
2019-04-22T05:12:12.800Z,5.10
2019-04-22T05:14:28.583Z,4.27
2019-04-22T05:17:10.533Z,4.37
2019-04-22T05:19:37.702Z,4.10
2019-04-22T05:21:58.173Z,4.60
2019-04-22T05:27:10.850Z,5.07
2019-04-22T05:31:57.015Z,4.73
2019-04-22T05:34:28.137Z,4.80
2019-04-22T05:37:00.687Z,5.03
2019-04-22T05:39:42.458Z,4.93
2019-04-22T05:42:03.915Z,4.50
2019-04-22T05:44:29.498Z,4.93
2019-04-22T05:47:02.698Z,5.70
2019-04-22T05:49:28.766Z,5.07
2019-04-22T05:51:55.000Z,6.03
2019-04-22T05:57:02.029Z,5.13
2019-04-22T05:59:32.189Z,4.90
2019-04-22T06:02:05.385Z,4.73
2019-04-22T06:04:29.700Z,5.13
2019-04-22T06:07:02.060Z,5.43
2019-04-22T06:09:36.819Z,4.60
2019-04-22T06:11:58.886Z,5.10
2019-04-22T06:14:40.363Z,5.50
2019-04-22T06:17:12.390Z,5.10
2019-04-22T06:19:44.571Z,5.00
2019-04-22T06:22:25.362Z,5.10
2019-04-22T06:24:43.696Z,5.83
2019-04-22T06:27:15.463Z,5.30
2019-04-22T06:29:41.880Z,4.80
2019-04-22T06:34:45.207Z,5.03
2019-04-22T06:37:18.614Z,4.40
2019-04-22T06:39:45.084Z,4.40
2019-04-22T06:42:17.546Z,5.77
2019-04-22T06:44:47.856Z,4.40
2019-04-22T06:47:38.304Z,3.77
2019-04-22T06:49:48.234Z,3.20
2019-04-22T06:54:48.900Z,4.20
2019-04-22T06:57:30.930Z,3.27
2019-04-22T07:00:08.313Z,3.73
2019-04-22T07:02:23.952Z,3.60
2019-04-22T07:04:49.448Z,10.30
2019-04-22T07:07:21.630Z,5.30
2019-04-22T07:09:54.421Z,3.73
2019-04-22T07:12:24.348Z,3.60
2019-04-22T07:14:54.572Z,3.73
2019-04-22T07:17:22.140Z,4.20
2019-04-22T07:19:51.153Z,3.77
2019-04-22T07:22:26.146Z,3.70
2019-04-22T07:24:55.831Z,4.20
2019-04-22T07:27:22.158Z,3.67
2019-04-22T07:30:06.309Z,5.87
2019-04-22T07:32:40.105Z,4.00
2019-04-22T07:35:01.069Z,3.80
2019-04-22T07:39:50.248Z,3.50
2019-04-22T07:44:59.206Z,4.70
2019-04-22T07:47:34.141Z,4.10
2019-04-22T07:50:03.079Z,3.93
2019-04-22T07:52:27.366Z,4.13
2019-04-22T07:54:56.846Z,3.83
2019-04-22T08:00:05.481Z,4.40
2019-04-22T08:02:31.801Z,4.30
2019-04-22T08:05:05.441Z,4.17
2019-04-22T08:07:29.752Z,4.57
2019-04-22T08:10:12.499Z,3.27
2019-04-22T08:12:36.315Z,3.47
2019-04-22T08:14:59.830Z,3.10
2019-04-22T08:17:51.811Z,2.97
2019-04-22T08:20:09.244Z,2.70
2019-04-22T08:22:39.814Z,3.30
2019-04-22T08:25:03.221Z,2.53
2019-04-22T08:27:35.585Z,3.20
2019-04-22T08:30:14.337Z,3.40
2019-04-22T08:32:34.977Z,3.90
2019-04-22T08:35:11.258Z,2.53
2019-04-22T08:37:50.749Z,2.90
2019-04-22T08:40:12.487Z,2.63
2019-04-22T08:42:43.413Z,2.70
2019-04-22T08:47:36.254Z,2.87
2019-04-22T08:50:12.282Z,2.93
2019-04-22T08:52:58.643Z,2.47
2019-04-22T08:55:14.340Z,2.83
2019-04-22T09:00:07.146Z,2.50
2019-04-22T09:05:20.432Z,2.73
2019-04-22T09:10:15.179Z,1.93
2019-04-22T09:12:57.959Z,2.60
2019-04-22T09:15:16.641Z,2.70
2019-04-22T09:17:42.257Z,3.10
2019-04-22T09:20:13.139Z,2.90
2019-04-22T09:22:41.150Z,2.43
2019-04-22T09:25:06.613Z,2.73
2019-04-22T09:27:48.383Z,2.43
2019-04-22T09:30:13.169Z,2.60
2019-04-22T09:32:44.945Z,2.17
2019-04-22T09:35:15.872Z,2.43
2019-04-22T09:37:55.866Z,2.30
2019-04-22T09:40:15.628Z,2.13
2019-04-22T09:45:19.654Z,3.07
2019-04-22T09:50:22.623Z,2.20
2019-04-22T09:52:51.601Z,2.23
2019-04-22T09:55:18.250Z,2.30
2019-04-22T09:57:50.947Z,2.03
2019-04-22T10:02:57.616Z,2.20
2019-04-22T10:05:20.998Z,1.87
2019-04-22T10:07:54.380Z,2.40
2019-04-22T10:10:20.465Z,2.33
2019-04-22T10:12:52.242Z,2.00
2019-04-22T10:15:23.300Z,2.47
2019-04-22T10:18:14.048Z,2.10
2019-04-22T10:20:27.085Z,2.07
2019-04-22T10:22:53.209Z,2.00
2019-04-22T10:25:23.202Z,2.00
2019-04-22T10:27:55.241Z,2.30
2019-04-22T10:30:35.930Z,1.90
2019-04-22T10:32:52.433Z,2.27
2019-04-22T10:35:15.434Z,2.20
2019-04-22T10:37:42.575Z,2.23
2019-04-22T10:40:32.388Z,2.23
2019-04-22T10:43:01.303Z,1.90
2019-04-22T10:45:30.359Z,2.57
2019-04-22T10:48:01.369Z,2.47
2019-04-22T10:50:41.119Z,3.60
2019-04-22T10:53:11.213Z,2.30
2019-04-22T10:55:43.371Z,2.33
2019-04-22T10:58:12.716Z,1.90
2019-04-22T11:00:42.038Z,2.30
2019-04-22T11:03:13.912Z,2.40
2019-04-22T11:05:44.288Z,2.33
2019-04-22T11:08:22.624Z,2.00
2019-04-22T11:11:00.692Z,2.70
2019-04-22T11:13:15.797Z,2.13
2019-04-22T11:15:44.666Z,2.80
2019-04-22T11:18:14.006Z,2.73
2019-04-22T11:20:43.895Z,2.57
2019-04-22T11:23:12.666Z,2.97
2019-04-22T11:25:41.622Z,6.83
2019-04-22T11:28:11.756Z,5.40
2019-04-22T11:30:40.849Z,10.90
2019-04-22T11:33:09.572Z,3.70
2019-04-22T11:35:39.486Z,4.07
2019-04-22T11:38:08.818Z,3.23
2019-04-22T11:40:40.334Z,3.10
2019-04-22T11:43:08.052Z,3.70
2019-04-22T11:45:37.355Z,3.50
2019-04-22T11:48:06.218Z,2.57
2019-04-22T11:50:35.754Z,3.07
2019-04-22T11:53:04.853Z,3.53
2019-04-22T11:55:34.896Z,3.20
2019-04-22T11:58:03.937Z,3.37
2019-04-22T12:00:34.966Z,3.10
2019-04-22T12:03:05.182Z,3.30
2019-04-22T12:05:34.377Z,3.20
2019-04-22T12:08:03.061Z,3.10
2019-04-22T12:10:40.238Z,2.83
2019-04-22T12:13:03.944Z,2.80
2019-04-22T12:15:33.015Z,3.03
2019-04-22T12:18:01.537Z,2.70
2019-04-22T12:20:30.089Z,3.20
2019-04-22T12:22:58.955Z,2.70
2019-04-22T12:25:34.723Z,2.73
2019-04-22T12:27:59.209Z,2.53
2019-04-22T12:30:28.156Z,2.60
2019-04-22T12:32:58.037Z,2.47
2019-04-22T12:35:28.287Z,2.37
2019-04-22T12:38:01.259Z,3.40
2019-04-22T12:40:38.267Z,2.40
2019-04-22T12:42:57.870Z,3.73
2019-04-22T12:45:26.739Z,30.33
2019-04-22T12:47:56.020Z,2.67
2019-04-22T12:50:31.546Z,2.40
2019-04-22T12:53:01.275Z,2.90
2019-04-22T12:55:27.961Z,2.53
2019-04-22T12:57:58.656Z,2.83
2019-04-22T13:00:27.424Z,2.80
2019-04-22T13:02:56.830Z,2.80
2019-04-22T13:05:27.065Z,2.33
2019-04-22T13:07:57.819Z,3.30
2019-04-22T13:10:39.103Z,2.73
2019-04-22T13:12:58.641Z,2.30
2019-04-22T13:15:28.905Z,2.60
2019-04-22T13:18:06.058Z,2.73
2019-04-22T13:20:28.286Z,2.60
2019-04-22T13:22:57.090Z,2.70
2019-04-22T13:25:29.964Z,2.80
2019-04-22T13:27:57.663Z,2.67
2019-04-22T13:30:28.407Z,2.50
2019-04-22T13:32:57.115Z,2.90
2019-04-22T13:35:28.042Z,3.50
2019-04-22T13:37:57.422Z,2.67
2019-04-22T13:40:26.646Z,4.13
2019-04-22T13:42:58.716Z,5.70
2019-04-22T13:45:27.845Z,3.70
2019-04-22T13:48:14.630Z,3.53
2019-04-22T13:51:00.877Z,2.60
2019-04-22T13:53:42.815Z,3.70
2019-04-22T13:55:56.926Z,3.57
2019-04-22T13:58:14.665Z,3.40
2019-04-22T14:00:34.429Z,3.70
2019-04-22T14:03:20.518Z,4.43
2019-04-22T14:05:50.940Z,3.60
2019-04-22T14:08:20.014Z,4.00
2019-04-22T14:10:50.195Z,4.33
2019-04-22T14:13:19.628Z,4.80
2019-04-22T14:15:48.761Z,4.40
2019-04-22T14:18:18.969Z,7.00
2019-04-22T14:20:49.025Z,4.80
2019-04-22T14:23:17.754Z,4.13
2019-04-22T14:25:46.473Z,6.20
2019-04-22T14:28:17.976Z,5.50
2019-04-22T14:30:46.373Z,4.80
2019-04-22T14:33:16.128Z,6.47
2019-04-22T14:35:45.773Z,5.63
2019-04-22T14:38:14.475Z,3.70
2019-04-22T14:40:45.322Z,3.13
2019-04-22T14:43:40.417Z,3.73
2019-04-22T14:46:19.276Z,3.17
2019-04-22T14:48:41.620Z,3.10
2019-04-22T14:51:00.633Z,2.97
2019-04-22T14:53:35.508Z,3.00
2019-04-22T14:55:46.512Z,3.13
2019-04-22T14:58:15.265Z,3.17
2019-04-22T15:00:45.714Z,3.30
2019-04-22T15:03:15.582Z,2.67
2019-04-22T15:05:44.344Z,2.83
2019-04-22T15:08:13.306Z,2.40
2019-04-22T15:10:42.341Z,2.60
2019-04-22T15:13:11.546Z,2.50
2019-04-22T15:16:03.011Z,3.30
2019-04-22T15:18:35.635Z,2.63
2019-04-22T15:21:11.893Z,3.10
2019-04-22T15:23:40.546Z,3.17
2019-04-22T15:26:10.494Z,2.60
2019-04-22T15:28:39.595Z,2.83
2019-04-22T15:31:09.125Z,2.93
2019-04-22T15:33:39.238Z,3.00
2019-04-22T15:36:09.885Z,2.87
2019-04-22T15:38:38.721Z,3.00
2019-04-22T15:41:07.352Z,3.30
2019-04-22T15:43:37.162Z,3.40
2019-04-22T15:46:05.886Z,4.07
2019-04-22T15:48:35.991Z,3.00
2019-04-22T15:51:05.017Z,3.40
2019-04-22T15:53:33.915Z,3.43
2019-04-22T15:56:03.072Z,3.37
2019-04-22T15:58:33.326Z,3.70
2019-04-22T16:01:12.686Z,5.17
2019-04-22T16:03:34.316Z,4.90
2019-04-22T16:06:03.988Z,4.53
2019-04-22T16:08:35.965Z,4.60
2019-04-22T16:11:04.090Z,6.03
2019-04-22T16:13:36.092Z,4.90
2019-04-22T16:16:03.118Z,4.90
2019-04-22T16:18:33.150Z,4.70
2019-04-22T16:21:02.911Z,4.20
2019-04-22T16:23:34.112Z,4.70
2019-04-22T16:26:07.793Z,5.53
2019-04-22T16:28:37.771Z,7.17
2019-04-22T16:31:07.235Z,5.57
2019-04-22T16:33:39.798Z,4.87
2019-04-22T16:36:07.240Z,6.97
2019-04-22T16:38:37.281Z,6.40
2019-04-22T16:41:06.722Z,6.03
2019-04-22T16:43:36.457Z,6.33
2019-04-22T16:46:05.736Z,5.37
2019-04-22T16:48:35.845Z,5.87
2019-04-22T16:51:06.208Z,5.47
2019-04-22T16:53:35.138Z,6.77
2019-04-22T16:56:04.771Z,7.20
2019-04-22T16:58:34.628Z,7.90
2019-04-22T17:01:05.136Z,6.60
2019-04-22T17:03:52.355Z,7.17
2019-04-22T17:06:23.424Z,7.13
2019-04-22T17:08:52.898Z,6.70
2019-04-22T17:11:22.141Z,7.50
2019-04-22T17:13:50.896Z,8.47
2019-04-22T17:16:20.218Z,8.30
2019-04-22T17:18:50.051Z,7.60
2019-04-22T17:21:19.655Z,7.60
2019-04-22T17:23:49.887Z,6.87
2019-04-22T17:26:18.865Z,7.30
2019-04-22T17:28:47.542Z,7.17
2019-04-22T17:31:16.566Z,8.20
2019-04-22T17:33:46.594Z,6.40
2019-04-22T17:36:16.369Z,6.97
2019-04-22T17:38:54.334Z,7.60
2019-04-22T17:41:26.665Z,7.90
2019-04-22T17:44:15.296Z,8.23
2019-04-22T17:46:41.713Z,8.10
2019-04-22T17:49:25.510Z,8.37
2019-04-22T17:52:15.633Z,7.33
2019-04-22T17:54:42.082Z,8.63
2019-04-22T17:57:12.326Z,7.07
2019-04-22T17:59:39.301Z,7.43
2019-04-22T18:02:08.611Z,8.27
2019-04-22T18:04:20.643Z,6.50
2019-04-22T18:07:19.158Z,7.20
2019-04-22T18:10:10.763Z,6.90
2019-04-22T18:12:20.517Z,7.67
2019-04-22T18:17:10.982Z,7.23
2019-04-22T18:19:39.931Z,7.07
2019-04-22T18:22:07.614Z,7.50
2019-04-22T18:24:32.662Z,8.40
2019-04-22T18:27:31.901Z,7.17
2019-04-22T18:29:43.515Z,8.20
2019-04-22T18:32:08.766Z,6.77
2019-04-22T18:34:42.895Z,7.43
2019-04-22T18:37:12.825Z,7.37
2019-04-22T18:39:52.801Z,7.07
2019-04-22T18:42:19.331Z,6.10
2019-04-22T18:44:55.318Z,6.70
2019-04-22T18:47:17.137Z,7.37
2019-04-22T18:49:46.097Z,7.20
2019-04-22T18:52:28.137Z,7.60
2019-04-22T18:55:03.909Z,7.77
2019-04-22T18:57:35.795Z,6.70
2019-04-22T18:59:52.122Z,6.80
2019-04-22T19:02:22.916Z,6.40
2019-04-22T19:04:56.116Z,5.40
2019-04-22T19:07:42.516Z,6.00
2019-04-22T19:10:23.608Z,6.30
2019-04-22T19:12:54.094Z,6.23
2019-04-22T19:15:16.350Z,7.00
2019-04-22T19:17:47.713Z,5.13
2019-04-22T19:20:15.900Z,6.37
2019-04-22T19:22:45.806Z,5.37
2019-04-22T19:25:05.892Z,6.90
2019-04-22T19:27:42.160Z,5.90
2019-04-22T19:30:16.381Z,5.50
2019-04-22T19:32:43.071Z,5.90
2019-04-22T19:35:14.171Z,6.60
2019-04-22T19:37:42.506Z,6.57
2019-04-22T19:40:24.312Z,6.37
2019-04-22T19:43:00.544Z,5.43
2019-04-22T19:45:17.633Z,6.07
2019-04-22T19:47:59.753Z,5.87
2019-04-22T19:50:24.487Z,5.60
2019-04-22T19:52:56.648Z,6.47
2019-04-22T19:55:23.422Z,5.77
2019-04-22T19:57:50.991Z,5.50
2019-04-22T20:00:19.608Z,5.57
2019-04-22T20:03:18.157Z,6.93
2019-04-22T20:05:50.569Z,5.90
2019-04-22T20:08:21.514Z,5.40
2019-04-22T20:10:51.123Z,5.57
2019-04-22T20:13:24.314Z,5.30
2019-04-22T20:15:43.297Z,6.30
2019-04-22T20:18:40.446Z,6.20
2019-04-22T20:20:59.657Z,6.27
2019-04-22T20:23:16.797Z,6.27
2019-04-22T20:25:48.681Z,5.77
2019-04-22T20:28:25.945Z,6.10
2019-04-22T20:30:50.482Z,6.67
2019-04-22T20:33:29.138Z,5.53
2019-04-22T20:36:01.457Z,5.80
2019-04-22T20:38:24.853Z,6.10
2019-04-22T20:40:55.041Z,5.97
2019-04-22T20:43:29.215Z,5.67
2019-04-22T20:46:00.594Z,5.63
2019-04-22T20:48:15.838Z,5.80
2019-04-22T20:51:02.586Z,5.70
2019-04-22T20:53:31.217Z,5.20
2019-04-22T20:56:00.718Z,6.70
2019-04-22T20:58:28.326Z,6.47
2019-04-22T21:00:53.383Z,5.40
2019-04-22T21:03:22.310Z,6.00
2019-04-22T21:05:51.871Z,6.73
2019-04-22T21:08:33.365Z,6.40
2019-04-22T21:10:53.473Z,7.23
2019-04-22T21:13:22.890Z,7.10
2019-04-22T21:16:05.332Z,5.20
2019-04-22T21:18:27.814Z,5.77
2019-04-22T21:21:02.321Z,5.83
2019-04-22T21:23:30.078Z,7.23
2019-04-22T21:26:02.379Z,6.37
2019-04-22T21:28:34.218Z,6.67
2019-04-22T21:31:01.584Z,6.10
2019-04-22T21:33:27.027Z,6.70
2019-04-22T21:36:14.233Z,5.90
2019-04-22T21:38:37.500Z,7.40
2019-04-22T21:41:08.413Z,6.07
2019-04-22T21:43:39.797Z,6.13
2019-04-22T21:46:09.109Z,7.30
2019-04-22T21:48:54.386Z,7.40
2019-04-22T21:51:11.170Z,7.30
2019-04-22T21:53:43.508Z,6.90
2019-04-22T21:56:25.370Z,8.17
2019-04-22T21:58:53.199Z,8.07
2019-04-22T22:03:54.908Z,7.27
2019-04-22T22:06:19.040Z,7.53
2019-04-22T22:08:57.855Z,7.57
2019-04-22T22:11:27.691Z,7.30
2019-04-22T22:13:59.461Z,7.43
2019-04-22T22:16:24.928Z,7.17
2019-04-22T22:19:00.910Z,6.83
2019-04-22T22:24:04.289Z,7.63
2019-04-22T22:26:26.385Z,7.23
2019-04-22T22:29:05.291Z,8.30
2019-04-22T22:31:36.674Z,7.50
2019-04-22T22:34:04.088Z,6.83
2019-04-22T22:36:23.663Z,7.63
2019-04-22T22:38:52.989Z,7.30
2019-04-22T22:41:11.966Z,6.47
2019-04-22T22:43:45.362Z,7.70
2019-04-22T22:46:22.807Z,7.77
2019-04-22T22:49:05.120Z,8.33
2019-04-22T22:51:40.303Z,7.50
2019-04-22T22:54:03.806Z,6.70
2019-04-22T22:56:42.233Z,7.90
2019-04-22T22:59:03.071Z,8.63
2019-04-22T23:01:35.998Z,7.43
2019-04-22T23:04:09.238Z,7.40
2019-04-22T23:06:40.629Z,8.20
2019-04-22T23:09:04.088Z,7.77
2019-04-22T23:11:52.283Z,8.23
2019-04-22T23:14:07.573Z,8.10
2019-04-22T23:16:25.182Z,7.23
2019-04-22T23:19:07.420Z,8.40
2019-04-22T23:21:43.539Z,7.83
2019-04-22T23:24:26.473Z,8.10
2019-04-22T23:27:07.108Z,7.80
2019-04-22T23:29:36.652Z,8.07
2019-04-22T23:32:09.190Z,8.03
2019-04-22T23:34:44.497Z,8.33
2019-04-22T23:37:21.963Z,8.27
2019-04-22T23:40:08.164Z,8.60
2019-04-22T23:42:27.004Z,8.20
2019-04-22T23:44:56.617Z,8.63
2019-04-22T23:47:26.491Z,8.37
2019-04-22T23:50:01.186Z,8.90
2019-04-22T23:52:35.766Z,8.53
2019-04-22T23:55:08.817Z,8.60
2019-04-22T23:57:55.789Z,9.67
